Delta, CO (81416)

1:19 PM MST on December 18, 2014 (GMT -0700)
MesoWest ROBIDU CO US UPR | Change Station
CLOSE
Current Station
Personal Weather Station
Location: Delta, CO
Elevation: 4901 ft
Nearby Weather Stations

Elev 4901 ft 38.75 °N, 108.12 °W | Updated 1 hour ago

Overcast
Overcast
41 °F
Feels Like 41 °F
N
Wind Variable Wind from North
Gusts 0.0 mph

Today
High -- | Low -- °F
--% Chance of Precip.
Yesterday
High -- | Low -- °F
Precip. -- in
7:25 AM 4:52 PM
Waning Crescent, 12% visible
Pressure 30.11 in
Visibility 10.0 miles
Clouds Scattered Clouds 1600 ft
Mostly Cloudy 2700 ft
Overcast 3300 ft
Windchill 41 °F
Dew Point Not available.
Humidity Not available.
Rainfall -999.00 in
Snow Depth Not available.
UV 1 out of 12
Pollen .10 out of 12
Air Quality Not available.
Flu Activity Not available.
METAR KAJZ 181955Z AUTO 22010G15KT 10SM SCT016 BKN027 OVC033 06/01 A3011 RMK AO2 T00580014

More Conditions Fewer Conditions

Pressure 30.11 in
Visibility 10.0 miles
Clouds Scattered Clouds 1600 ft
Mostly Cloudy 2700 ft
Overcast 3300 ft
Windchill 41 °F
Dew Point Not available.
Humidity Not available.
Rainfall -999.00 in
Snow Depth Not available.
UV 1 out of 12
Pollen .10 out of 12
Air Quality Not available.
Flu Activity Not available.
METAR KAJZ 181955Z AUTO 22010G15KT 10SM SCT016 BKN027 OVC033 06/01 A3011 RMK AO2 T00580014

More Conditions Fewer Conditions

10-Day Weather Forecast

Almanac

Astronomy

Dec. 18, 2014 Rise Set
Actual Time
Civil Twilight
Nautical Twilight
Astronomical Twilight
Moon
Length of Visible Light
Length of Day
Tomorrow will be .
, % of the Moon is Illuminated

Today's Extremes

State Highs State Lows

Community

WunderPhotos

Upload Photos

1,778,992 photos uploaded!

WunderBlogs® & News

Nearby

Air Quality

  Air Quality AQ Index Pollutant
Not available.

Snow Depth

Station Depth Elevation

Earthquake Activity

City Distance Mag. Time & Date
Minimum magnitude displayed is 2.5.

Coastal Water Temperatures

Place Temperature

Nearby Weather Stations